sensor_id;sensor_type;location;lat;lon;timestamp;P1;durP1;ratioP1;P2;durP2;ratioP2
21266;SDS011;10791;53.108;18.326;2023-08-24T00:00:06;11.07;;;5.13;;
21266;SDS011;10791;53.108;18.326;2023-08-24T00:05:32;8.82;;;5.13;;
21266;SDS011;10791;53.108;18.326;2023-08-24T00:10:37;11.48;;;5.53;;
21266;SDS011;10791;53.108;18.326;2023-08-24T00:15:41;9.43;;;5.22;;
21266;SDS011;10791;53.108;18.326;2023-08-24T00:20:44;9.43;;;5.15;;
21266;SDS011;10791;53.108;18.326;2023-08-24T00:25:48;13.40;;;5.05;;
21266;SDS011;10791;53.108;18.326;2023-08-24T00:30:51;9.57;;;4.97;;
21266;SDS011;10791;53.108;18.326;2023-08-24T00:35:58;7.53;;;4.68;;
21266;SDS011;10791;53.108;18.326;2023-08-24T00:41:03;6.43;;;4.75;;
21266;SDS011;10791;53.108;18.326;2023-08-24T00:46:07;8.55;;;4.15;;
21266;SDS011;10791;53.108;18.326;2023-08-24T00:51:11;6.95;;;4.85;;
21266;SDS011;10791;53.108;18.326;2023-08-24T00:56:15;9.02;;;4.13;;
21266;SDS011;10791;53.108;18.326;2023-08-24T01:01:19;5.72;;;3.58;;
21266;SDS011;10791;53.108;18.326;2023-08-24T01:06:22;5.78;;;4.05;;
21266;SDS011;10791;53.108;18.326;2023-08-24T01:16:29;5.93;;;3.58;;
21266;SDS011;10791;53.108;18.326;2023-08-24T01:21:35;10.27;;;3.88;;
21266;SDS011;10791;53.108;18.326;2023-08-24T01:26:38;6.25;;;4.30;;
21266;SDS011;10791;53.108;18.326;2023-08-24T01:31:43;7.45;;;3.75;;
21266;SDS011;10791;53.108;18.326;2023-08-24T01:36:50;7.70;;;3.97;;
21266;SDS011;10791;53.108;18.326;2023-08-24T01:41:54;5.25;;;3.38;;
21266;SDS011;10791;53.108;18.326;2023-08-24T01:47:03;7.38;;;2.95;;
21266;SDS011;10791;53.108;18.326;2023-08-24T01:52:08;7.90;;;3.35;;
21266;SDS011;10791;53.108;18.326;2023-08-24T01:57:12;9.75;;;3.60;;
21266;SDS011;10791;53.108;18.326;2023-08-24T02:02:16;5.70;;;3.80;;
21266;SDS011;10791;53.108;18.326;2023-08-24T02:07:19;7.97;;;3.90;;
21266;SDS011;10791;53.108;18.326;2023-08-24T02:12:22;6.80;;;4.22;;
21266;SDS011;10791;53.108;18.326;2023-08-24T02:17:26;5.15;;;3.53;;
21266;SDS011;10791;53.108;18.326;2023-08-24T02:22:29;5.97;;;3.65;;
21266;SDS011;10791;53.108;18.326;2023-08-24T02:27:33;8.18;;;4.90;;
21266;SDS011;10791;53.108;18.326;2023-08-24T02:32:36;5.75;;;4.00;;
21266;SDS011;10791;53.108;18.326;2023-08-24T02:37:40;6.00;;;4.30;;
21266;SDS011;10791;53.108;18.326;2023-08-24T02:42:43;4.43;;;3.65;;
21266;SDS011;10791;53.108;18.326;2023-08-24T02:47:47;5.03;;;3.72;;
21266;SDS011;10791;53.108;18.326;2023-08-24T02:52:51;8.70;;;3.78;;
21266;SDS011;10791;53.108;18.326;2023-08-24T02:57:55;8.50;;;3.38;;
21266;SDS011;10791;53.108;18.326;2023-08-24T03:02:58;7.20;;;4.07;;
21266;SDS011;10791;53.108;18.326;2023-08-24T03:08:01;6.28;;;4.03;;
21266;SDS011;10791;53.108;18.326;2023-08-24T03:13:06;8.30;;;4.38;;
21266;SDS011;10791;53.108;18.326;2023-08-24T03:18:11;21.83;;;4.72;;
21266;SDS011;10791;53.108;18.326;2023-08-24T03:23:15;6.47;;;3.67;;
21266;SDS011;10791;53.108;18.326;2023-08-24T03:28:19;7.82;;;3.95;;
21266;SDS011;10791;53.108;18.326;2023-08-24T03:33:22;5.90;;;3.80;;
21266;SDS011;10791;53.108;18.326;2023-08-24T03:38:26;11.55;;;3.80;;
21266;SDS011;10791;53.108;18.326;2023-08-24T03:43:33;7.93;;;3.75;;
21266;SDS011;10791;53.108;18.326;2023-08-24T03:48:37;6.80;;;4.07;;
21266;SDS011;10791;53.108;18.326;2023-08-24T03:53:40;10.15;;;3.95;;
21266;SDS011;10791;53.108;18.326;2023-08-24T03:58:44;8.60;;;5.13;;
21266;SDS011;10791;53.108;18.326;2023-08-24T04:03:47;9.00;;;4.35;;
21266;SDS011;10791;53.108;18.326;2023-08-24T04:08:51;5.78;;;3.97;;
21266;SDS011;10791;53.108;18.326;2023-08-24T04:13:55;11.30;;;4.03;;
21266;SDS011;10791;53.108;18.326;2023-08-24T04:18:58;5.45;;;3.38;;
21266;SDS011;10791;53.108;18.326;2023-08-24T04:24:01;7.25;;;3.55;;
21266;SDS011;10791;53.108;18.326;2023-08-24T04:29:04;5.80;;;3.05;;
21266;SDS011;10791;53.108;18.326;2023-08-24T04:34:07;7.28;;;3.70;;
21266;SDS011;10791;53.108;18.326;2023-08-24T04:39:11;5.15;;;3.47;;
21266;SDS011;10791;53.108;18.326;2023-08-24T04:44:15;15.45;;;4.45;;
21266;SDS011;10791;53.108;18.326;2023-08-24T04:49:18;5.43;;;3.72;;
21266;SDS011;10791;53.108;18.326;2023-08-24T04:54:21;6.05;;;3.55;;
21266;SDS011;10791;53.108;18.326;2023-08-24T04:59:25;4.45;;;3.38;;
21266;SDS011;10791;53.108;18.326;2023-08-24T05:04:28;7.90;;;3.75;;
21266;SDS011;10791;53.108;18.326;2023-08-24T05:09:31;7.47;;;3.83;;
21266;SDS011;10791;53.108;18.326;2023-08-24T05:14:34;6.50;;;4.00;;
21266;SDS011;10791;53.108;18.326;2023-08-24T05:19:37;5.15;;;3.58;;
21266;SDS011;10791;53.108;18.326;2023-08-24T05:24:41;4.93;;;3.50;;
21266;SDS011;10791;53.108;18.326;2023-08-24T05:29:44;4.70;;;3.53;;
21266;SDS011;10791;53.108;18.326;2023-08-24T05:34:47;5.85;;;3.38;;
21266;SDS011;10791;53.108;18.326;2023-08-24T05:39:50;8.68;;;4.65;;
21266;SDS011;10791;53.108;18.326;2023-08-24T05:44:54;5.38;;;3.17;;
21266;SDS011;10791;53.108;18.326;2023-08-24T05:49:57;4.65;;;3.05;;
21266;SDS011;10791;53.108;18.326;2023-08-24T05:55:00;5.13;;;3.50;;
21266;SDS011;10791;53.108;18.326;2023-08-24T06:00:04;4.97;;;2.67;;
21266;SDS011;10791;53.108;18.326;2023-08-24T06:05:12;3.83;;;2.53;;
21266;SDS011;10791;53.108;18.326;2023-08-24T06:10:16;5.55;;;2.45;;
21266;SDS011;10791;53.108;18.326;2023-08-24T06:15:19;3.78;;;2.67;;
21266;SDS011;10791;53.108;18.326;2023-08-24T06:20:26;5.95;;;3.13;;
21266;SDS011;10791;53.108;18.326;2023-08-24T06:25:29;3.10;;;2.55;;
21266;SDS011;10791;53.108;18.326;2023-08-24T06:30:36;4.40;;;2.00;;
21266;SDS011;10791;53.108;18.326;2023-08-24T06:35:43;4.22;;;2.30;;
21266;SDS011;10791;53.108;18.326;2023-08-24T06:40:46;3.45;;;2.03;;
21266;SDS011;10791;53.108;18.326;2023-08-24T06:45:49;2.28;;;1.50;;
21266;SDS011;10791;53.108;18.326;2023-08-24T06:50:53;3.40;;;1.38;;
21266;SDS011;10791;53.108;18.326;2023-08-24T06:55:56;3.30;;;1.38;;
21266;SDS011;10791;53.108;18.326;2023-08-24T07:01:00;4.07;;;1.63;;
21266;SDS011;10791;53.108;18.326;2023-08-24T07:06:08;2.88;;;1.40;;
21266;SDS011;10791;53.108;18.326;2023-08-24T07:11:14;5.55;;;1.63;;
21266;SDS011;10791;53.108;18.326;2023-08-24T07:16:17;2.35;;;1.40;;
21266;SDS011;10791;53.108;18.326;2023-08-24T07:21:21;3.22;;;1.40;;
21266;SDS011;10791;53.108;18.326;2023-08-24T07:26:24;5.55;;;1.52;;
21266;SDS011;10791;53.108;18.326;2023-08-24T07:31:28;4.18;;;1.55;;
21266;SDS011;10791;53.108;18.326;2023-08-24T07:36:31;4.93;;;1.02;;
21266;SDS011;10791;53.108;18.326;2023-08-24T07:41:35;1.88;;;1.00;;
21266;SDS011;10791;53.108;18.326;2023-08-24T07:46:38;2.85;;;1.02;;
21266;SDS011;10791;53.108;18.326;2023-08-24T07:51:42;1.88;;;0.98;;
21266;SDS011;10791;53.108;18.326;2023-08-24T07:56:46;8.88;;;1.20;;
21266;SDS011;10791;53.108;18.326;2023-08-24T08:01:49;1.65;;;0.75;;
21266;SDS011;10791;53.108;18.326;2023-08-24T08:06:52;2.38;;;1.42;;
21266;SDS011;10791;53.108;18.326;2023-08-24T08:11:56;1.48;;;0.90;;
21266;SDS011;10791;53.108;18.326;2023-08-24T08:16:59;2.55;;;0.70;;
21266;SDS011;10791;53.108;18.326;2023-08-24T08:22:03;4.97;;;1.70;;
21266;SDS011;10791;53.108;18.326;2023-08-24T08:27:11;1.60;;;0.80;;
21266;SDS011;10791;53.108;18.326;2023-08-24T08:32:14;2.78;;;0.88;;
21266;SDS011;10791;53.108;18.326;2023-08-24T08:37:18;0.80;;;0.55;;
21266;SDS011;10791;53.108;18.326;2023-08-24T08:42:21;2.20;;;0.80;;
21266;SDS011;10791;53.108;18.326;2023-08-24T08:47:24;2.15;;;0.90;;
21266;SDS011;10791;53.108;18.326;2023-08-24T08:52:27;3.03;;;1.23;;
21266;SDS011;10791;53.108;18.326;2023-08-24T08:57:31;1.63;;;0.65;;
21266;SDS011;10791;53.108;18.326;2023-08-24T09:02:35;1.95;;;0.80;;
21266;SDS011;10791;53.108;18.326;2023-08-24T09:07:39;1.02;;;0.73;;
21266;SDS011;10791;53.108;18.326;2023-08-24T09:12:43;1.15;;;0.60;;
21266;SDS011;10791;53.108;18.326;2023-08-24T09:17:48;1.00;;;0.70;;
21266;SDS011;10791;53.108;18.326;2023-08-24T09:22:52;1.75;;;1.10;;
21266;SDS011;10791;53.108;18.326;2023-08-24T09:27:58;1.20;;;0.70;;
21266;SDS011;10791;53.108;18.326;2023-08-24T09:33:10;0.82;;;0.43;;
21266;SDS011;10791;53.108;18.326;2023-08-24T09:38:17;3.95;;;0.68;;
21266;SDS011;10791;53.108;18.326;2023-08-24T09:43:22;1.58;;;0.63;;
21266;SDS011;10791;53.108;18.326;2023-08-24T09:48:26;1.33;;;0.90;;
21266;SDS011;10791;53.108;18.326;2023-08-24T09:53:32;2.78;;;0.70;;
21266;SDS011;10791;53.108;18.326;2023-08-24T09:58:40;1.75;;;0.70;;
21266;SDS011;10791;53.108;18.326;2023-08-24T10:03:45;1.52;;;0.93;;
21266;SDS011;10791;53.108;18.326;2023-08-24T10:08:54;3.22;;;0.60;;
21266;SDS011;10791;53.108;18.326;2023-08-24T10:19:15;1.75;;;0.85;;
21266;SDS011;10791;53.108;18.326;2023-08-24T10:24:19;3.97;;;0.70;;
21266;SDS011;10791;53.108;18.326;2023-08-24T10:29:26;2.63;;;0.68;;
21266;SDS011;10791;53.108;18.326;2023-08-24T10:34:31;1.58;;;0.73;;
21266;SDS011;10791;53.108;18.326;2023-08-24T10:39:35;1.42;;;0.70;;
21266;SDS011;10791;53.108;18.326;2023-08-24T10:44:44;5.55;;;0.80;;
21266;SDS011;10791;53.108;18.326;2023-08-24T10:54:58;1.73;;;0.88;;
21266;SDS011;10791;53.108;18.326;2023-08-24T11:00:07;4.35;;;0.98;;
21266;SDS011;10791;53.108;18.326;2023-08-24T11:05:24;3.28;;;0.90;;
21266;SDS011;10791;53.108;18.326;2023-08-24T11:10:33;5.60;;;1.25;;
21266;SDS011;10791;53.108;18.326;2023-08-24T11:15:52;2.50;;;0.70;;
21266;SDS011;10791;53.108;18.326;2023-08-24T11:21:01;2.10;;;1.05;;
21266;SDS011;10791;53.108;18.326;2023-08-24T11:26:08;1.27;;;0.80;;
21266;SDS011;10791;53.108;18.326;2023-08-24T11:31:11;3.40;;;1.02;;
21266;SDS011;10791;53.108;18.326;2023-08-24T11:36:14;3.30;;;1.02;;
21266;SDS011;10791;53.108;18.326;2023-08-24T11:41:18;2.15;;;1.05;;
21266;SDS011;10791;53.108;18.326;2023-08-24T11:46:23;2.17;;;0.80;;
21266;SDS011;10791;53.108;18.326;2023-08-24T11:51:27;2.70;;;0.80;;
21266;SDS011;10791;53.108;18.326;2023-08-24T11:56:44;1.30;;;0.77;;
21266;SDS011;10791;53.108;18.326;2023-08-24T12:01:49;1.88;;;0.90;;
21266;SDS011;10791;53.108;18.326;2023-08-24T12:06:53;4.70;;;1.10;;
21266;SDS011;10791;53.108;18.326;2023-08-24T12:11:57;1.70;;;0.85;;
21266;SDS011;10791;53.108;18.326;2023-08-24T12:17:05;3.45;;;1.05;;
21266;SDS011;10791;53.108;18.326;2023-08-24T12:22:14;3.05;;;1.30;;
21266;SDS011;10791;53.108;18.326;2023-08-24T12:27:22;1.40;;;0.82;;
21266;SDS011;10791;53.108;18.326;2023-08-24T12:32:29;1.58;;;0.65;;
21266;SDS011;10791;53.108;18.326;2023-08-24T12:37:45;1.13;;;0.73;;
21266;SDS011;10791;53.108;18.326;2023-08-24T12:42:49;1.60;;;1.00;;
21266;SDS011;10791;53.108;18.326;2023-08-24T12:47:52;1.95;;;0.88;;
21266;SDS011;10791;53.108;18.326;2023-08-24T12:52:56;1.65;;;1.15;;
21266;SDS011;10791;53.108;18.326;2023-08-24T12:58:02;2.45;;;1.00;;
21266;SDS011;10791;53.108;18.326;2023-08-24T13:03:06;4.28;;;1.10;;
21266;SDS011;10791;53.108;18.326;2023-08-24T13:08:11;3.10;;;1.33;;
21266;SDS011;10791;53.108;18.326;2023-08-24T13:13:14;3.72;;;1.10;;
21266;SDS011;10791;53.108;18.326;2023-08-24T13:18:17;1.50;;;0.90;;
21266;SDS011;10791;53.108;18.326;2023-08-24T13:23:21;2.03;;;1.05;;
21266;SDS011;10791;53.108;18.326;2023-08-24T13:28:24;1.52;;;1.00;;
21266;SDS011;10791;53.108;18.326;2023-08-24T13:33:28;3.08;;;1.10;;
21266;SDS011;10791;53.108;18.326;2023-08-24T13:38:31;1.10;;;0.73;;
21266;SDS011;10791;53.108;18.326;2023-08-24T13:43:34;3.30;;;1.10;;
21266;SDS011;10791;53.108;18.326;2023-08-24T13:48:38;2.03;;;1.20;;
21266;SDS011;10791;53.108;18.326;2023-08-24T13:53:41;2.40;;;0.90;;
21266;SDS011;10791;53.108;18.326;2023-08-24T13:58:45;9.55;;;1.35;;
21266;SDS011;10791;53.108;18.326;2023-08-24T14:03:49;1.80;;;1.05;;
21266;SDS011;10791;53.108;18.326;2023-08-24T14:08:52;1.98;;;1.10;;
21266;SDS011;10791;53.108;18.326;2023-08-24T14:13:55;2.72;;;1.17;;
21266;SDS011;10791;53.108;18.326;2023-08-24T14:19:00;1.55;;;1.00;;
21266;SDS011;10791;53.108;18.326;2023-08-24T14:24:06;1.50;;;0.98;;
21266;SDS011;10791;53.108;18.326;2023-08-24T14:29:09;5.65;;;1.17;;
21266;SDS011;10791;53.108;18.326;2023-08-24T14:34:13;3.20;;;1.40;;
21266;SDS011;10791;53.108;18.326;2023-08-24T14:39:16;1.48;;;1.00;;
21266;SDS011;10791;53.108;18.326;2023-08-24T14:44:20;2.25;;;1.00;;
21266;SDS011;10791;53.108;18.326;2023-08-24T14:49:23;1.65;;;1.02;;
21266;SDS011;10791;53.108;18.326;2023-08-24T14:54:26;1.67;;;0.90;;
21266;SDS011;10791;53.108;18.326;2023-08-24T14:59:30;1.38;;;0.80;;
21266;SDS011;10791;53.108;18.326;2023-08-24T15:04:33;3.75;;;1.20;;
21266;SDS011;10791;53.108;18.326;2023-08-24T15:09:36;8.70;;;1.85;;
21266;SDS011;10791;53.108;18.326;2023-08-24T15:14:45;2.67;;;0.90;;
21266;SDS011;10791;53.108;18.326;2023-08-24T15:20:03;2.55;;;1.40;;
21266;SDS011;10791;53.108;18.326;2023-08-24T15:25:10;3.13;;;1.10;;
21266;SDS011;10791;53.108;18.326;2023-08-24T15:30:13;1.63;;;0.98;;
21266;SDS011;10791;53.108;18.326;2023-08-24T15:35:17;18.38;;;1.92;;
21266;SDS011;10791;53.108;18.326;2023-08-24T15:40:20;1.75;;;0.80;;
21266;SDS011;10791;53.108;18.326;2023-08-24T15:45:25;2.22;;;0.95;;
21266;SDS011;10791;53.108;18.326;2023-08-24T15:50:31;1.58;;;0.98;;
21266;SDS011;10791;53.108;18.326;2023-08-24T15:55:34;1.90;;;0.90;;
21266;SDS011;10791;53.108;18.326;2023-08-24T16:00:38;2.70;;;1.08;;
21266;SDS011;10791;53.108;18.326;2023-08-24T16:05:41;3.00;;;1.40;;
21266;SDS011;10791;53.108;18.326;2023-08-24T16:10:44;0.88;;;0.63;;
21266;SDS011;10791;53.108;18.326;2023-08-24T16:15:48;3.72;;;1.20;;
21266;SDS011;10791;53.108;18.326;2023-08-24T16:20:51;2.22;;;0.98;;
21266;SDS011;10791;53.108;18.326;2023-08-24T16:25:55;3.42;;;1.10;;
21266;SDS011;10791;53.108;18.326;2023-08-24T16:30:58;1.45;;;1.05;;
21266;SDS011;10791;53.108;18.326;2023-08-24T16:36:02;2.03;;;0.75;;
21266;SDS011;10791;53.108;18.326;2023-08-24T16:41:05;1.50;;;0.98;;
21266;SDS011;10791;53.108;18.326;2023-08-24T16:46:08;1.95;;;1.20;;
21266;SDS011;10791;53.108;18.326;2023-08-24T16:51:12;3.20;;;1.30;;
21266;SDS011;10791;53.108;18.326;2023-08-24T16:56:16;6.13;;;1.80;;
21266;SDS011;10791;53.108;18.326;2023-08-24T17:01:19;6.40;;;1.70;;
21266;SDS011;10791;53.108;18.326;2023-08-24T17:06:22;32.95;;;4.95;;
21266;SDS011;10791;53.108;18.326;2023-08-24T17:11:26;16.10;;;2.47;;
21266;SDS011;10791;53.108;18.326;2023-08-24T17:16:29;7.85;;;1.85;;
21266;SDS011;10791;53.108;18.326;2023-08-24T17:21:33;6.88;;;1.75;;
21266;SDS011;10791;53.108;18.326;2023-08-24T17:26:37;6.57;;;1.35;;
21266;SDS011;10791;53.108;18.326;2023-08-24T17:31:42;2.67;;;1.02;;
21266;SDS011;10791;53.108;18.326;2023-08-24T17:36:46;5.43;;;1.75;;
21266;SDS011;10791;53.108;18.326;2023-08-24T17:41:49;9.90;;;2.05;;
21266;SDS011;10791;53.108;18.326;2023-08-24T17:46:53;6.78;;;2.53;;
21266;SDS011;10791;53.108;18.326;2023-08-24T17:51:56;9.65;;;2.33;;
21266;SDS011;10791;53.108;18.326;2023-08-24T17:57:00;19.65;;;3.85;;
21266;SDS011;10791;53.108;18.326;2023-08-24T18:02:04;13.40;;;3.40;;
21266;SDS011;10791;53.108;18.326;2023-08-24T18:07:09;14.48;;;2.80;;
21266;SDS011;10791;53.108;18.326;2023-08-24T18:12:12;22.73;;;4.93;;
21266;SDS011;10791;53.108;18.326;2023-08-24T18:17:16;18.73;;;4.70;;
21266;SDS011;10791;53.108;18.326;2023-08-24T18:22:20;11.05;;;5.07;;
21266;SDS011;10791;53.108;18.326;2023-08-24T18:27:24;15.32;;;4.97;;
21266;SDS011;10791;53.108;18.326;2023-08-24T18:32:29;12.90;;;4.55;;
21266;SDS011;10791;53.108;18.326;2023-08-24T18:37:34;30.70;;;5.82;;
21266;SDS011;10791;53.108;18.326;2023-08-24T18:42:39;16.77;;;5.20;;
21266;SDS011;10791;53.108;18.326;2023-08-24T18:47:44;26.17;;;3.92;;
21266;SDS011;10791;53.108;18.326;2023-08-24T18:52:48;24.55;;;3.90;;
21266;SDS011;10791;53.108;18.326;2023-08-24T18:57:54;17.88;;;4.40;;
21266;SDS011;10791;53.108;18.326;2023-08-24T19:02:58;15.95;;;4.28;;
21266;SDS011;10791;53.108;18.326;2023-08-24T19:08:04;17.27;;;4.28;;
21266;SDS011;10791;53.108;18.326;2023-08-24T19:13:08;13.77;;;5.05;;
21266;SDS011;10791;53.108;18.326;2023-08-24T19:18:12;17.77;;;4.55;;
21266;SDS011;10791;53.108;18.326;2023-08-24T19:23:17;17.50;;;5.93;;
21266;SDS011;10791;53.108;18.326;2023-08-24T19:28:22;13.98;;;4.90;;
21266;SDS011;10791;53.108;18.326;2023-08-24T19:33:31;16.08;;;4.55;;
21266;SDS011;10791;53.108;18.326;2023-08-24T19:38:34;19.98;;;5.15;;
21266;SDS011;10791;53.108;18.326;2023-08-24T19:43:39;29.20;;;7.47;;
21266;SDS011;10791;53.108;18.326;2023-08-24T19:48:44;42.72;;;12.27;;
21266;SDS011;10791;53.108;18.326;2023-08-24T19:53:48;40.38;;;11.88;;
21266;SDS011;10791;53.108;18.326;2023-08-24T19:58:52;25.98;;;7.93;;
21266;SDS011;10791;53.108;18.326;2023-08-24T20:03:56;26.40;;;7.60;;
21266;SDS011;10791;53.108;18.326;2023-08-24T20:09:01;17.35;;;6.82;;
21266;SDS011;10791;53.108;18.326;2023-08-24T20:14:06;14.90;;;5.68;;
21266;SDS011;10791;53.108;18.326;2023-08-24T20:19:11;13.52;;;6.18;;
21266;SDS011;10791;53.108;18.326;2023-08-24T20:24:15;12.38;;;5.93;;
21266;SDS011;10791;53.108;18.326;2023-08-24T20:29:19;14.02;;;6.05;;
21266;SDS011;10791;53.108;18.326;2023-08-24T20:34:23;14.85;;;6.30;;
21266;SDS011;10791;53.108;18.326;2023-08-24T20:39:27;12.95;;;6.93;;
21266;SDS011;10791;53.108;18.326;2023-08-24T20:44:31;16.65;;;7.43;;
21266;SDS011;10791;53.108;18.326;2023-08-24T20:49:34;18.10;;;6.68;;
21266;SDS011;10791;53.108;18.326;2023-08-24T20:54:38;47.85;;;9.52;;
21266;SDS011;10791;53.108;18.326;2023-08-24T20:59:41;31.50;;;10.23;;
21266;SDS011;10791;53.108;18.326;2023-08-24T21:04:45;33.55;;;9.98;;
21266;SDS011;10791;53.108;18.326;2023-08-24T21:09:49;25.67;;;9.20;;
21266;SDS011;10791;53.108;18.326;2023-08-24T21:14:53;29.75;;;9.05;;
21266;SDS011;10791;53.108;18.326;2023-08-24T21:19:56;20.80;;;9.05;;
21266;SDS011;10791;53.108;18.326;2023-08-24T21:25:00;23.42;;;8.43;;
21266;SDS011;10791;53.108;18.326;2023-08-24T21:30:05;22.90;;;7.90;;
21266;SDS011;10791;53.108;18.326;2023-08-24T21:35:09;20.25;;;9.60;;
21266;SDS011;10791;53.108;18.326;2023-08-24T21:40:13;25.23;;;8.43;;
21266;SDS011;10791;53.108;18.326;2023-08-24T21:45:16;29.85;;;8.75;;
21266;SDS011;10791;53.108;18.326;2023-08-24T21:50:19;24.50;;;9.18;;
21266;SDS011;10791;53.108;18.326;2023-08-24T21:55:23;17.65;;;7.25;;
21266;SDS011;10791;53.108;18.326;2023-08-24T22:00:27;14.70;;;6.95;;
21266;SDS011;10791;53.108;18.326;2023-08-24T22:05:31;17.38;;;7.43;;
21266;SDS011;10791;53.108;18.326;2023-08-24T22:10:34;15.05;;;7.07;;
21266;SDS011;10791;53.108;18.326;2023-08-24T22:15:38;16.65;;;8.18;;
21266;SDS011;10791;53.108;18.326;2023-08-24T22:20:42;15.30;;;7.10;;
21266;SDS011;10791;53.108;18.326;2023-08-24T22:25:45;12.15;;;6.40;;
21266;SDS011;10791;53.108;18.326;2023-08-24T22:30:49;18.17;;;7.97;;
21266;SDS011;10791;53.108;18.326;2023-08-24T22:35:55;14.27;;;6.35;;
21266;SDS011;10791;53.108;18.326;2023-08-24T22:40:58;16.58;;;7.22;;
21266;SDS011;10791;53.108;18.326;2023-08-24T22:46:02;19.35;;;7.03;;
21266;SDS011;10791;53.108;18.326;2023-08-24T22:51:05;8.88;;;5.70;;
21266;SDS011;10791;53.108;18.326;2023-08-24T22:56:09;16.08;;;8.50;;
21266;SDS011;10791;53.108;18.326;2023-08-24T23:01:15;15.93;;;7.32;;
21266;SDS011;10791;53.108;18.326;2023-08-24T23:06:20;16.30;;;6.75;;
21266;SDS011;10791;53.108;18.326;2023-08-24T23:11:24;13.50;;;6.60;;
21266;SDS011;10791;53.108;18.326;2023-08-24T23:16:27;11.82;;;6.53;;
21266;SDS011;10791;53.108;18.326;2023-08-24T23:21:30;13.70;;;7.22;;
21266;SDS011;10791;53.108;18.326;2023-08-24T23:26:33;12.70;;;6.97;;
21266;SDS011;10791;53.108;18.326;2023-08-24T23:31:42;16.67;;;7.13;;
21266;SDS011;10791;53.108;18.326;2023-08-24T23:36:45;15.85;;;6.78;;
21266;SDS011;10791;53.108;18.326;2023-08-24T23:41:48;11.77;;;6.63;;
21266;SDS011;10791;53.108;18.326;2023-08-24T23:46:52;12.50;;;6.70;;
21266;SDS011;10791;53.108;18.326;2023-08-24T23:51:56;15.40;;;7.03;;
21266;SDS011;10791;53.108;18.326;2023-08-24T23:57:00;12.45;;;6.80;;
